Details for Aegean Airlines at LGAV




Go Back


Latest METAR
Local Time

LGAV 232350Z 01008KT 9999 SCT030 10/07 Q1010 NOSIG

24/02/2018, 02:12:54

Description
Results
Aegean Airlines Logo
Number of Pilots based at LGAV
0 Pilots Based here
Number of Aegean Airlines Flights Departed from LGAV
1 Flights Departed
Number of Aegean Airlines Flights Arrived at LGAV
4 Flights Arrived
Number of Aegean Airlines Schedules Departing from LGAV
71 Schedules
Number of Aegean Airlines Schedules Arriving at LGAV
71 Schedules
Number of Aegean Airlines Schedules Departing from LGAV availible today
31 Schedules Today
Number of Aegean Airlines Schedules Arriving at LGAV availible today
34 Schedules Today
Average Landing Rate at LGAV
-137 fpm
Aegean Airlines Average Landing Rate at LGAV
-252 fpm
Total Fuel Purchased at LGAV by Aegean Airlines
3,010.95 kgs / 6,637.94 lbs

Pilots Based at LGAV


Pilot ID
Pilot Name
Pilot Rank
No. of Flights
No. of Flying Hours
There are no pilots assigned to this hub!   Will you be the first?
Content